This is the latest recevied weather packets stored in our database for station/object DL4PY-13. If no packets are shown the sender has not sent any weather packets the latest 10 day(s).
| Time | Temp. | Humidity | Pressure | Rain* | Wind** | Luminosity | Snow |
|---|---|---|---|---|---|---|---|
| 1777537442 | 10.56° C | 36% | 1029.2 hPa | 0 mm | - | - | - |
| 1777536541 | 10° C | 39% | 1029.4 hPa | 0 mm | - | - | - |
| 1777536237 | 10° C | 39% | 1029.4 hPa | 0 mm | - | - | - |
| 1777535937 | 10° C | 41% | 1029.1 hPa | 0 mm | - | - | - |
| 1777535641 | 10° C | 40% | 1029.1 hPa | 0 mm | - | - | - |
| 1777535637 | 10° C | 40% | 1029.1 hPa | 0 mm | - | - | - |
| 1777535336 | 9.44° C | 40% | 1029.3 hPa | 0 mm | - | - | - |
| 1777535037 | 9.44° C | 42% | 1029.3 hPa | 0 mm | - | - | - |
| 1777534742 | 9.44° C | 43% | 1029.4 hPa | 0 mm | - | - | - |
| 1777534738 | 9.44° C | 43% | 1029.4 hPa | 0 mm | - | - | - |
| 1777534137 | 9.44° C | 44% | 1029.4 hPa | 0 mm | - | - | - |
| 1777533843 | 8.89° C | 45% | 1029.4 hPa | 0 mm | - | - | - |
| 1777533838 | 8.89° C | 45% | 1029.4 hPa | 0 mm | - | - | - |
| 1777480791 | 16.67° C | 30% | 1024.5 hPa | 0 mm | - | - | - |
| 1777480490 | 16.67° C | 31% | 1024.6 hPa | 0 mm | - | - | - |
| 1777479890 | 16.67° C | 30% | 1024.7 hPa | 0 mm | - | - | - |
| 1777479591 | 16.67° C | 31% | 1024.6 hPa | 0 mm | - | - | - |
| 1777478690 | 16.67° C | 31% | 1024.6 hPa | 0 mm | - | - | - |
| 1777478390 | 16.67° C | 31% | 1024.5 hPa | 0 mm | - | - | - |
| 1777477791 | 17.22° C | 32% | 1024.4 hPa | 0 mm | - | - | - |
| 1777477189 | 17.22° C | 33% | 1024.5 hPa | 0 mm | - | - | - |
| 1777476890 | 17.22° C | 32% | 1024.5 hPa | 0 mm | - | - | - |
| 1777475990 | 17.22° C | 32% | 1024.4 hPa | 0 mm | - | - | - |
| 1777475091 | 16.67° C | 32% | 1024.6 hPa | 0 mm | - | - | - |
| 1777474790 | 17.22° C | 32% | 1024.5 hPa | 0 mm | - | - | - |
* Rain latest hour (hover to see other rain measurements)
** Current wind speed in m/s (hover to see current wind gust speed)